sensor_id;sensor_type;location;lat;lon;timestamp;P1;durP1;ratioP1;P2;durP2;ratioP2
12232;SDS011;6179;51.748;8.728;2022-10-16T00:01:46;2.27;;;0.90;;
12232;SDS011;6179;51.748;8.728;2022-10-16T00:07:46;0.57;;;0.57;;
12232;SDS011;6179;51.748;8.728;2022-10-16T00:13:48;1.43;;;0.60;;
12232;SDS011;6179;51.748;8.728;2022-10-16T00:19:50;4.07;;;0.70;;
12232;SDS011;6179;51.748;8.728;2022-10-16T00:25:54;1.57;;;0.60;;
12232;SDS011;6179;51.748;8.728;2022-10-16T00:31:56;2.30;;;0.80;;
12232;SDS011;6179;51.748;8.728;2022-10-16T00:37:57;2.30;;;0.93;;
12232;SDS011;6179;51.748;8.728;2022-10-16T00:43:58;0.80;;;0.80;;
12232;SDS011;6179;51.748;8.728;2022-10-16T00:50:11;0.60;;;0.60;;
12232;SDS011;6179;51.748;8.728;2022-10-16T00:56:27;1.03;;;0.87;;
12232;SDS011;6179;51.748;8.728;2022-10-16T01:02:29;2.37;;;1.03;;
12232;SDS011;6179;51.748;8.728;2022-10-16T01:08:34;1.20;;;1.00;;
12232;SDS011;6179;51.748;8.728;2022-10-16T01:21:28;1.23;;;0.70;;
12232;SDS011;6179;51.748;8.728;2022-10-16T01:27:36;0.80;;;0.80;;
12232;SDS011;6179;51.748;8.728;2022-10-16T01:33:43;4.20;;;1.23;;
12232;SDS011;6179;51.748;8.728;2022-10-16T01:39:49;1.30;;;0.90;;
12232;SDS011;6179;51.748;8.728;2022-10-16T01:45:52;4.53;;;1.20;;
12232;SDS011;6179;51.748;8.728;2022-10-16T01:51:55;2.70;;;0.77;;
12232;SDS011;6179;51.748;8.728;2022-10-16T01:57:58;1.00;;;0.80;;
12232;SDS011;6179;51.748;8.728;2022-10-16T02:04:12;1.53;;;0.93;;
12232;SDS011;6179;51.748;8.728;2022-10-16T02:10:17;9.73;;;0.93;;
12232;SDS011;6179;51.748;8.728;2022-10-16T02:16:18;1.53;;;1.10;;
12232;SDS011;6179;51.748;8.728;2022-10-16T02:22:22;2.30;;;0.90;;
12232;SDS011;6179;51.748;8.728;2022-10-16T02:28:42;6.80;;;0.80;;
12232;SDS011;6179;51.748;8.728;2022-10-16T02:34:52;1.53;;;0.53;;
12232;SDS011;6179;51.748;8.728;2022-10-16T02:40:54;0.57;;;0.57;;
12232;SDS011;6179;51.748;8.728;2022-10-16T02:46:55;0.70;;;0.50;;
12232;SDS011;6179;51.748;8.728;2022-10-16T02:52:55;0.40;;;0.40;;
12232;SDS011;6179;51.748;8.728;2022-10-16T02:58:56;0.50;;;0.50;;
12232;SDS011;6179;51.748;8.728;2022-10-16T03:04:57;1.53;;;0.50;;
12232;SDS011;6179;51.748;8.728;2022-10-16T03:10:58;3.90;;;0.53;;
12232;SDS011;6179;51.748;8.728;2022-10-16T03:16:58;0.50;;;0.50;;
12232;SDS011;6179;51.748;8.728;2022-10-16T03:22:59;2.30;;;0.60;;
12232;SDS011;6179;51.748;8.728;2022-10-16T03:29:00;2.57;;;0.67;;
12232;SDS011;6179;51.748;8.728;2022-10-16T03:35:02;1.47;;;0.50;;
12232;SDS011;6179;51.748;8.728;2022-10-16T03:41:03;0.40;;;0.40;;
12232;SDS011;6179;51.748;8.728;2022-10-16T03:47:04;0.33;;;0.33;;
12232;SDS011;6179;51.748;8.728;2022-10-16T03:53:04;0.40;;;0.40;;
12232;SDS011;6179;51.748;8.728;2022-10-16T03:59:05;0.70;;;0.50;;
12232;SDS011;6179;51.748;8.728;2022-10-16T04:05:06;0.30;;;0.30;;
12232;SDS011;6179;51.748;8.728;2022-10-16T04:11:07;0.70;;;0.43;;
12232;SDS011;6179;51.748;8.728;2022-10-16T04:17:08;0.40;;;0.40;;
12232;SDS011;6179;51.748;8.728;2022-10-16T04:23:08;2.30;;;0.50;;
12232;SDS011;6179;51.748;8.728;2022-10-16T04:29:09;1.07;;;0.60;;
12232;SDS011;6179;51.748;8.728;2022-10-16T04:35:09;2.30;;;0.40;;
12232;SDS011;6179;51.748;8.728;2022-10-16T04:41:10;0.60;;;0.60;;
12232;SDS011;6179;51.748;8.728;2022-10-16T04:47:11;0.60;;;0.60;;
12232;SDS011;6179;51.748;8.728;2022-10-16T04:53:11;0.50;;;0.50;;
12232;SDS011;6179;51.748;8.728;2022-10-16T04:59:13;2.30;;;0.43;;
12232;SDS011;6179;51.748;8.728;2022-10-16T05:05:14;0.50;;;0.40;;
12232;SDS011;6179;51.748;8.728;2022-10-16T05:11:15;0.73;;;0.50;;
12232;SDS011;6179;51.748;8.728;2022-10-16T05:17:15;0.50;;;0.50;;
12232;SDS011;6179;51.748;8.728;2022-10-16T05:23:16;1.07;;;0.37;;
12232;SDS011;6179;51.748;8.728;2022-10-16T05:29:17;0.60;;;0.50;;
12232;SDS011;6179;51.748;8.728;2022-10-16T05:35:18;0.83;;;0.43;;
12232;SDS011;6179;51.748;8.728;2022-10-16T05:41:19;3.07;;;0.40;;
12232;SDS011;6179;51.748;8.728;2022-10-16T05:47:21;8.40;;;0.60;;
12232;SDS011;6179;51.748;8.728;2022-10-16T05:53:22;0.40;;;0.40;;
12232;SDS011;6179;51.748;8.728;2022-10-16T05:59:25;0.37;;;0.37;;
12232;SDS011;6179;51.748;8.728;2022-10-16T06:05:26;1.13;;;0.40;;
12232;SDS011;6179;51.748;8.728;2022-10-16T06:11:28;0.40;;;0.30;;
12232;SDS011;6179;51.748;8.728;2022-10-16T06:17:30;2.50;;;0.50;;
12232;SDS011;6179;51.748;8.728;2022-10-16T06:23:30;0.43;;;0.43;;
12232;SDS011;6179;51.748;8.728;2022-10-16T06:29:31;7.50;;;0.57;;
12232;SDS011;6179;51.748;8.728;2022-10-16T06:35:32;2.33;;;0.60;;
12232;SDS011;6179;51.748;8.728;2022-10-16T06:41:33;1.03;;;0.37;;
12232;SDS011;6179;51.748;8.728;2022-10-16T06:47:34;0.50;;;0.50;;
12232;SDS011;6179;51.748;8.728;2022-10-16T06:53:35;2.33;;;0.50;;
12232;SDS011;6179;51.748;8.728;2022-10-16T06:59:37;3.50;;;0.60;;
12232;SDS011;6179;51.748;8.728;2022-10-16T07:05:39;0.40;;;0.40;;
12232;SDS011;6179;51.748;8.728;2022-10-16T07:11:40;0.40;;;0.40;;
12232;SDS011;6179;51.748;8.728;2022-10-16T07:17:41;0.43;;;0.43;;
12232;SDS011;6179;51.748;8.728;2022-10-16T07:23:41;0.40;;;0.40;;
12232;SDS011;6179;51.748;8.728;2022-10-16T07:29:42;0.77;;;0.50;;
12232;SDS011;6179;51.748;8.728;2022-10-16T07:35:50;0.87;;;0.60;;
12232;SDS011;6179;51.748;8.728;2022-10-16T07:41:51;0.50;;;0.50;;
12232;SDS011;6179;51.748;8.728;2022-10-16T07:47:52;0.83;;;0.50;;
12232;SDS011;6179;51.748;8.728;2022-10-16T07:53:52;0.43;;;0.30;;
12232;SDS011;6179;51.748;8.728;2022-10-16T07:59:53;0.33;;;0.33;;
12232;SDS011;6179;51.748;8.728;2022-10-16T08:05:56;1.90;;;0.50;;
12232;SDS011;6179;51.748;8.728;2022-10-16T08:11:57;0.40;;;0.40;;
12232;SDS011;6179;51.748;8.728;2022-10-16T08:17:58;0.60;;;0.40;;
12232;SDS011;6179;51.748;8.728;2022-10-16T08:24:00;1.27;;;0.40;;
12232;SDS011;6179;51.748;8.728;2022-10-16T08:30:01;0.40;;;0.40;;
12232;SDS011;6179;51.748;8.728;2022-10-16T08:36:02;2.10;;;0.40;;
12232;SDS011;6179;51.748;8.728;2022-10-16T08:42:06;0.37;;;0.33;;
12232;SDS011;6179;51.748;8.728;2022-10-16T08:48:45;11.00;;;0.50;;
12232;SDS011;6179;51.748;8.728;2022-10-16T08:54:47;6.83;;;0.50;;
12232;SDS011;6179;51.748;8.728;2022-10-16T09:00:55;1.47;;;0.40;;
12232;SDS011;6179;51.748;8.728;2022-10-16T09:07:01;1.27;;;0.53;;
12232;SDS011;6179;51.748;8.728;2022-10-16T09:13:15;2.43;;;0.47;;
12232;SDS011;6179;51.748;8.728;2022-10-16T09:19:27;0.33;;;0.33;;
12232;SDS011;6179;51.748;8.728;2022-10-16T09:25:38;5.23;;;0.63;;
12232;SDS011;6179;51.748;8.728;2022-10-16T09:31:42;11.33;;;0.53;;
12232;SDS011;6179;51.748;8.728;2022-10-16T09:37:44;0.60;;;0.60;;
12232;SDS011;6179;51.748;8.728;2022-10-16T09:43:49;0.60;;;0.60;;
12232;SDS011;6179;51.748;8.728;2022-10-16T09:55:59;1.27;;;0.50;;
12232;SDS011;6179;51.748;8.728;2022-10-16T10:02:01;2.30;;;0.70;;
12232;SDS011;6179;51.748;8.728;2022-10-16T10:08:12;0.50;;;0.50;;
12232;SDS011;6179;51.748;8.728;2022-10-16T10:14:27;0.93;;;0.53;;
12232;SDS011;6179;51.748;8.728;2022-10-16T10:20:36;0.40;;;0.40;;
12232;SDS011;6179;51.748;8.728;2022-10-16T10:26:38;0.80;;;0.60;;
12232;SDS011;6179;51.748;8.728;2022-10-16T10:39:28;4.37;;;0.50;;
12232;SDS011;6179;51.748;8.728;2022-10-16T10:45:44;0.40;;;0.30;;
12232;SDS011;6179;51.748;8.728;2022-10-16T11:10:38;0.73;;;0.30;;
12232;SDS011;6179;51.748;8.728;2022-10-16T11:16:54;0.30;;;0.30;;
12232;SDS011;6179;51.748;8.728;2022-10-16T11:23:00;0.30;;;0.30;;
12232;SDS011;6179;51.748;8.728;2022-10-16T11:29:15;0.30;;;0.30;;
12232;SDS011;6179;51.748;8.728;2022-10-16T11:47:51;0.30;;;0.30;;
12232;SDS011;6179;51.748;8.728;2022-10-16T12:00:47;0.40;;;0.40;;
12232;SDS011;6179;51.748;8.728;2022-10-16T12:07:21;0.53;;;0.30;;
12232;SDS011;6179;51.748;8.728;2022-10-16T12:19:32;0.30;;;0.30;;
12232;SDS011;6179;51.748;8.728;2022-10-16T12:25:33;0.30;;;0.30;;
12232;SDS011;6179;51.748;8.728;2022-10-16T12:31:37;0.70;;;0.40;;
12232;SDS011;6179;51.748;8.728;2022-10-16T12:37:44;0.67;;;0.30;;
12232;SDS011;6179;51.748;8.728;2022-10-16T12:43:46;0.30;;;0.30;;
12232;SDS011;6179;51.748;8.728;2022-10-16T12:49:49;0.63;;;0.40;;
12232;SDS011;6179;51.748;8.728;2022-10-16T13:28:09;7.73;;;1.23;;
12232;SDS011;6179;51.748;8.728;2022-10-16T13:34:19;0.40;;;0.40;;
12232;SDS011;6179;51.748;8.728;2022-10-16T13:40:22;0.40;;;0.30;;
12232;SDS011;6179;51.748;8.728;2022-10-16T13:46:25;0.30;;;0.30;;
12232;SDS011;6179;51.748;8.728;2022-10-16T13:52:26;0.90;;;0.40;;
12232;SDS011;6179;51.748;8.728;2022-10-16T13:58:27;0.40;;;0.30;;
12232;SDS011;6179;51.748;8.728;2022-10-16T14:04:29;6.63;;;0.30;;
12232;SDS011;6179;51.748;8.728;2022-10-16T14:10:32;1.13;;;0.30;;
12232;SDS011;6179;51.748;8.728;2022-10-16T14:16:33;0.30;;;0.30;;
12232;SDS011;6179;51.748;8.728;2022-10-16T14:22:35;1.40;;;0.30;;
12232;SDS011;6179;51.748;8.728;2022-10-16T14:28:40;1.07;;;0.40;;
12232;SDS011;6179;51.748;8.728;2022-10-16T14:34:42;0.30;;;0.30;;
12232;SDS011;6179;51.748;8.728;2022-10-16T14:40:53;0.30;;;0.30;;
12232;SDS011;6179;51.748;8.728;2022-10-16T14:46:57;1.17;;;0.50;;
12232;SDS011;6179;51.748;8.728;2022-10-16T14:52:59;0.40;;;0.30;;
12232;SDS011;6179;51.748;8.728;2022-10-16T14:59:00;1.00;;;0.40;;
12232;SDS011;6179;51.748;8.728;2022-10-16T15:05:10;2.10;;;0.73;;
12232;SDS011;6179;51.748;8.728;2022-10-16T15:11:15;2.60;;;0.80;;
12232;SDS011;6179;51.748;8.728;2022-10-16T15:17:17;1.13;;;0.30;;
12232;SDS011;6179;51.748;8.728;2022-10-16T15:23:19;0.40;;;0.30;;
12232;SDS011;6179;51.748;8.728;2022-10-16T15:29:21;0.93;;;0.40;;
12232;SDS011;6179;51.748;8.728;2022-10-16T15:35:22;1.47;;;1.13;;
12232;SDS011;6179;51.748;8.728;2022-10-16T15:41:23;0.40;;;0.40;;
12232;SDS011;6179;51.748;8.728;2022-10-16T15:47:23;2.67;;;0.60;;
12232;SDS011;6179;51.748;8.728;2022-10-16T15:53:24;0.60;;;0.40;;
12232;SDS011;6179;51.748;8.728;2022-10-16T15:59:25;1.13;;;0.40;;
12232;SDS011;6179;51.748;8.728;2022-10-16T16:05:25;0.60;;;0.40;;
12232;SDS011;6179;51.748;8.728;2022-10-16T16:11:27;0.70;;;0.60;;
12232;SDS011;6179;51.748;8.728;2022-10-16T16:17:28;4.80;;;0.90;;
12232;SDS011;6179;51.748;8.728;2022-10-16T16:23:30;5.47;;;1.37;;
12232;SDS011;6179;51.748;8.728;2022-10-16T16:29:31;3.00;;;1.30;;
12232;SDS011;6179;51.748;8.728;2022-10-16T16:35:32;10.43;;;3.40;;
12232;SDS011;6179;51.748;8.728;2022-10-16T16:41:33;7.07;;;3.20;;
12232;SDS011;6179;51.748;8.728;2022-10-16T16:47:33;18.67;;;6.37;;
12232;SDS011;6179;51.748;8.728;2022-10-16T16:53:35;9.30;;;4.07;;
12232;SDS011;6179;51.748;8.728;2022-10-16T16:59:36;3.60;;;2.77;;
12232;SDS011;6179;51.748;8.728;2022-10-16T17:05:37;3.30;;;1.43;;
12232;SDS011;6179;51.748;8.728;2022-10-16T17:11:37;2.20;;;0.73;;
12232;SDS011;6179;51.748;8.728;2022-10-16T17:17:41;0.60;;;0.50;;
12232;SDS011;6179;51.748;8.728;2022-10-16T17:23:41;1.50;;;0.90;;
12232;SDS011;6179;51.748;8.728;2022-10-16T17:29:42;1.10;;;0.70;;
12232;SDS011;6179;51.748;8.728;2022-10-16T17:35:44;1.10;;;0.73;;
12232;SDS011;6179;51.748;8.728;2022-10-16T17:41:46;3.40;;;0.90;;
12232;SDS011;6179;51.748;8.728;2022-10-16T17:47:47;2.40;;;0.80;;
12232;SDS011;6179;51.748;8.728;2022-10-16T17:53:48;1.40;;;0.90;;
12232;SDS011;6179;51.748;8.728;2022-10-16T17:59:50;2.77;;;0.93;;
12232;SDS011;6179;51.748;8.728;2022-10-16T18:05:50;1.40;;;1.03;;
12232;SDS011;6179;51.748;8.728;2022-10-16T18:11:52;3.83;;;2.30;;
12232;SDS011;6179;51.748;8.728;2022-10-16T18:17:58;5.57;;;1.67;;
12232;SDS011;6179;51.748;8.728;2022-10-16T18:23:59;4.27;;;1.00;;
12232;SDS011;6179;51.748;8.728;2022-10-16T18:30:00;4.20;;;1.10;;
12232;SDS011;6179;51.748;8.728;2022-10-16T18:36:01;2.60;;;0.80;;
12232;SDS011;6179;51.748;8.728;2022-10-16T18:42:04;13.33;;;2.80;;
12232;SDS011;6179;51.748;8.728;2022-10-16T18:48:04;3.30;;;1.43;;
12232;SDS011;6179;51.748;8.728;2022-10-16T18:54:07;1.73;;;1.23;;
12232;SDS011;6179;51.748;8.728;2022-10-16T19:00:09;1.43;;;0.70;;
12232;SDS011;6179;51.748;8.728;2022-10-16T19:06:10;2.87;;;1.20;;
12232;SDS011;6179;51.748;8.728;2022-10-16T19:12:13;2.80;;;0.80;;
12232;SDS011;6179;51.748;8.728;2022-10-16T19:18:14;1.30;;;1.00;;
12232;SDS011;6179;51.748;8.728;2022-10-16T19:24:14;2.20;;;0.90;;
12232;SDS011;6179;51.748;8.728;2022-10-16T19:30:16;15.00;;;1.13;;
12232;SDS011;6179;51.748;8.728;2022-10-16T19:36:27;2.73;;;0.70;;
12232;SDS011;6179;51.748;8.728;2022-10-16T19:42:30;4.13;;;0.70;;
12232;SDS011;6179;51.748;8.728;2022-10-16T19:48:31;3.50;;;0.90;;
12232;SDS011;6179;51.748;8.728;2022-10-16T19:54:31;5.37;;;1.20;;
12232;SDS011;6179;51.748;8.728;2022-10-16T20:00:34;5.43;;;1.10;;
12232;SDS011;6179;51.748;8.728;2022-10-16T20:06:35;4.93;;;0.80;;
12232;SDS011;6179;51.748;8.728;2022-10-16T20:12:36;3.00;;;0.60;;
12232;SDS011;6179;51.748;8.728;2022-10-16T20:18:36;0.80;;;0.80;;
12232;SDS011;6179;51.748;8.728;2022-10-16T20:24:37;3.27;;;0.90;;
12232;SDS011;6179;51.748;8.728;2022-10-16T20:30:39;0.80;;;0.60;;
12232;SDS011;6179;51.748;8.728;2022-10-16T20:36:41;3.60;;;0.80;;
12232;SDS011;6179;51.748;8.728;2022-10-16T20:42:44;1.13;;;0.93;;
12232;SDS011;6179;51.748;8.728;2022-10-16T20:48:45;3.43;;;1.13;;
12232;SDS011;6179;51.748;8.728;2022-10-16T20:54:46;1.93;;;1.17;;
12232;SDS011;6179;51.748;8.728;2022-10-16T21:00:46;3.13;;;0.90;;
12232;SDS011;6179;51.748;8.728;2022-10-16T21:06:47;5.37;;;1.20;;
12232;SDS011;6179;51.748;8.728;2022-10-16T21:12:51;0.80;;;0.70;;
12232;SDS011;6179;51.748;8.728;2022-10-16T21:18:53;1.47;;;0.70;;
12232;SDS011;6179;51.748;8.728;2022-10-16T21:24:54;2.07;;;0.80;;
12232;SDS011;6179;51.748;8.728;2022-10-16T21:30:54;3.67;;;1.30;;
12232;SDS011;6179;51.748;8.728;2022-10-16T21:36:55;7.00;;;1.60;;
12232;SDS011;6179;51.748;8.728;2022-10-16T21:42:56;2.97;;;0.70;;
12232;SDS011;6179;51.748;8.728;2022-10-16T21:49:00;1.10;;;0.70;;
12232;SDS011;6179;51.748;8.728;2022-10-16T21:55:02;0.70;;;0.60;;
12232;SDS011;6179;51.748;8.728;2022-10-16T22:01:06;16.97;;;0.90;;
12232;SDS011;6179;51.748;8.728;2022-10-16T22:07:11;1.83;;;0.60;;
12232;SDS011;6179;51.748;8.728;2022-10-16T22:13:12;0.63;;;0.63;;
12232;SDS011;6179;51.748;8.728;2022-10-16T22:19:13;3.90;;;0.80;;
12232;SDS011;6179;51.748;8.728;2022-10-16T22:25:15;1.70;;;0.80;;
12232;SDS011;6179;51.748;8.728;2022-10-16T22:31:16;2.30;;;0.93;;
12232;SDS011;6179;51.748;8.728;2022-10-16T22:37:17;2.50;;;1.50;;
12232;SDS011;6179;51.748;8.728;2022-10-16T22:43:17;3.33;;;1.53;;
12232;SDS011;6179;51.748;8.728;2022-10-16T22:49:18;1.17;;;1.07;;
12232;SDS011;6179;51.748;8.728;2022-10-16T22:55:19;5.07;;;1.63;;
12232;SDS011;6179;51.748;8.728;2022-10-16T23:01:21;3.20;;;1.13;;
12232;SDS011;6179;51.748;8.728;2022-10-16T23:07:27;7.90;;;1.53;;
12232;SDS011;6179;51.748;8.728;2022-10-16T23:13:28;2.80;;;1.57;;
12232;SDS011;6179;51.748;8.728;2022-10-16T23:19:28;1.83;;;1.40;;
12232;SDS011;6179;51.748;8.728;2022-10-16T23:25:29;2.90;;;2.10;;
12232;SDS011;6179;51.748;8.728;2022-10-16T23:31:30;4.80;;;1.93;;
12232;SDS011;6179;51.748;8.728;2022-10-16T23:37:30;2.40;;;2.20;;
12232;SDS011;6179;51.748;8.728;2022-10-16T23:43:31;2.90;;;2.47;;
12232;SDS011;6179;51.748;8.728;2022-10-16T23:49:32;13.53;;;2.70;;
12232;SDS011;6179;51.748;8.728;2022-10-16T23:55:32;4.73;;;1.77;;
